METAR Data
IDs: Format: Raw Decoded Include TAF

Data at: 0118 UTC 20 Jul 2019

METAR for:KADU (Audubon Cnty Arpt, IA, US)
Text:KADU 200115Z AUTO 20007KT 10SM CLR 30/26 A2974 RMK AO2
Temperature: 30.0°C ( 86°F)
Dewpoint: 26.0°C ( 79°F) [RH = 79%]
Pressure (altimeter):29.74 inches Hg (1007.2 mb)
Winds:from the SSW (200 degrees) at 8 MPH (7 knots; 3.6 m/s)
Visibility:10 or more sm (16+ km)
Ceiling:at least 12,000 feet AGL
Clouds:sky clear below 12,000 feet AGL
QC Flag:automated observation with no human augmentation